Time;durP1;ratioP1;P1;durP2;ratioP2;P2;SDS_P1;SDS_P2;PMS_P1;PMS_P2;Temp;Humidity;BMP_temperature;BMP_pressure;BME280_temperature;BME280_humidity;BME280_pressure;Samples;Min_cycle;Max_cycle;Signal;HPM_P1;HPM_P2
2022/07/20 00:00:52;;;;;;;8.63;3.92;;;23.90;73.90;;;;;;4969738;28;20048;-91
2022/07/20 00:03:18;;;;;;;6.57;3.80;;;23.80;74.20;;;;;;4962524;28;20051;-91
2022/07/20 00:05:45;;;;;;;9.45;4.00;;;23.80;73.70;;;;;;4986411;28;21532;-91
2022/07/20 00:08:11;;;;;;;8.23;4.05;;;23.70;74.20;;;;;;4991026;28;20045;-93
2022/07/20 00:13:22;;;;;;;11.10;3.92;;;23.70;74.70;;;;;;4985247;28;20057;-93
2022/07/20 00:15:48;;;;;;;7.55;3.80;;;23.60;74.70;;;;;;4958830;28;20050;-92
2022/07/20 00:18:14;;;;;;;7.40;3.88;;;23.60;75.10;;;;;;4993614;28;20497;-93
2022/07/20 00:20:40;;;;;;;12.40;4.68;;;23.60;75.20;;;;;;4991233;28;20053;-91
2022/07/20 00:23:06;;;;;;;7.45;3.97;;;23.60;75.00;;;;;;5006658;28;20042;-93
2022/07/20 00:25:32;;;;;;;8.60;4.28;;;23.50;75.10;;;;;;4987062;28;20035;-94
2022/07/20 00:27:58;;;;;;;8.52;3.90;;;23.50;75.80;;;;;;4981732;28;20097;-92
2022/07/20 00:30:24;;;;;;;9.80;4.22;;;23.40;76.20;;;;;;4983920;28;20042;-92
2022/07/20 00:32:50;;;;;;;7.40;4.03;;;23.50;75.50;;;;;;4973164;28;20053;-92
2022/07/20 00:35:16;;;;;;;8.00;4.00;;;23.40;75.20;;;;;;4974927;28;20423;-93
2022/07/20 00:37:43;;;;;;;8.65;4.15;;;23.20;75.70;;;;;;4970718;28;20050;-92
2022/07/20 00:40:12;;;;;;;8.15;4.05;;;23.50;75.90;;;;;;4958539;28;20599;-92
2022/07/20 00:42:38;;;;;;;9.00;4.53;;;23.40;75.60;;;;;;4989815;28;20049;-91
2022/07/20 00:45:06;;;;;;;9.52;4.15;;;23.30;75.60;;;;;;4984043;28;20050;-92
2022/07/20 00:47:34;;;;;;;8.20;4.05;;;23.30;75.70;;;;;;4980547;28;20078;-93
2022/07/20 00:50:00;;;;;;;6.63;3.90;;;23.30;75.30;;;;;;4979565;28;20043;-93
2022/07/20 00:52:26;;;;;;;8.25;3.97;;;23.40;75.60;;;;;;4977637;28;20064;-93
2022/07/20 00:54:53;;;;;;;7.25;3.85;;;23.20;75.70;;;;;;4971083;28;20463;-92
2022/07/20 00:57:20;;;;;;;8.20;4.47;;;23.20;75.70;;;;;;4981174;28;20056;-93
2022/07/20 00:59:46;;;;;;;7.05;4.10;;;23.20;76.00;;;;;;4984354;28;20038;-93
2022/07/20 01:02:12;;;;;;;7.05;4.15;;;23.20;76.30;;;;;;4977349;28;20050;-92
2022/07/20 01:04:39;;;;;;;7.65;4.22;;;23.10;76.10;;;;;;5003556;28;20082;-92
2022/07/20 01:07:04;;;;;;;7.10;4.10;;;23.10;76.50;;;;;;4959538;28;20306;-93
2022/07/20 01:09:30;;;;;;;8.48;4.40;;;23.00;76.50;;;;;;4986742;28;20392;-92
2022/07/20 01:11:56;;;;;;;9.23;4.10;;;23.00;77.00;;;;;;4956701;28;20043;-92
2022/07/20 01:14:22;;;;;;;7.15;4.18;;;22.90;77.20;;;;;;4996122;28;20487;-93
2022/07/20 01:16:48;;;;;;;9.25;4.88;;;23.00;77.30;;;;;;4995156;28;20057;-93
2022/07/20 01:19:13;;;;;;;8.77;4.50;;;22.90;77.60;;;;;;4981613;28;20102;-91
2022/07/20 01:21:43;;;;;;;8.43;3.80;;;22.80;77.60;;;;;;4978651;28;20101;-92
2022/07/20 01:24:12;;;;;;;9.15;4.70;;;22.70;77.60;;;;;;4992616;28;20042;-91
2022/07/20 01:26:43;;;;;;;8.55;4.38;;;22.80;78.00;;;;;;5000883;28;20042;-92
2022/07/20 01:29:10;;;;;;;8.10;4.57;;;22.60;78.20;;;;;;4990971;28;20038;-90
2022/07/20 01:31:36;;;;;;;8.70;4.55;;;22.70;78.30;;;;;;4975700;28;20074;-92
2022/07/20 01:34:02;;;;;;;8.55;4.60;;;22.70;78.30;;;;;;4990456;28;20053;-92
2022/07/20 01:36:28;;;;;;;10.63;4.65;;;22.60;78.40;;;;;;4976592;28;20125;-93
2022/07/20 01:38:54;;;;;;;9.27;4.53;;;22.60;78.50;;;;;;4986492;28;20129;-91
2022/07/20 01:41:20;;;;;;;8.65;4.40;;;22.70;78.30;;;;;;4990109;28;20117;-92
2022/07/20 01:43:45;;;;;;;7.28;4.50;;;22.60;78.80;;;;;;4990881;28;20446;-92
2022/07/20 01:46:11;;;;;;;7.60;4.57;;;22.50;78.40;;;;;;4979930;28;20458;-92
2022/07/20 01:48:37;;;;;;;9.73;4.38;;;22.50;79.20;;;;;;4984484;28;20443;-92
2022/07/20 01:51:03;;;;;;;10.63;4.60;;;22.50;79.40;;;;;;4984105;28;20133;-91
2022/07/20 01:53:29;;;;;;;7.40;4.05;;;22.50;79.90;;;;;;4985366;28;20573;-91
2022/07/20 01:55:55;;;;;;;8.73;4.70;;;22.40;79.40;;;;;;5005752;28;20046;-92
2022/07/20 01:58:21;;;;;;;9.18;4.53;;;22.40;79.70;;;;;;5007251;28;20065;-93
2022/07/20 02:00:47;;;;;;;10.63;4.55;;;22.30;79.80;;;;;;4991251;28;20073;-93
2022/07/20 02:03:13;;;;;;;8.32;4.75;;;22.30;79.90;;;;;;4974360;28;20051;-90
2022/07/20 02:05:39;;;;;;;8.25;4.20;;;22.40;79.80;;;;;;4980449;28;20054;-93
2022/07/20 02:08:05;;;;;;;7.80;4.60;;;22.30;79.70;;;;;;4987304;28;20069;-90
2022/07/20 02:10:31;;;;;;;8.85;4.70;;;22.40;79.80;;;;;;4968785;28;20053;-90
2022/07/20 02:12:57;;;;;;;8.52;4.95;;;22.30;79.90;;;;;;4981862;28;20118;-92
2022/07/20 02:18:08;;;;;;;9.30;5.43;;;22.30;79.60;;;;;;4994112;28;20054;-91
2022/07/20 02:20:34;;;;;;;9.23;4.60;;;22.20;79.80;;;;;;4977825;28;20054;-94
2022/07/20 02:23:01;;;;;;;7.63;4.32;;;22.20;79.70;;;;;;4982547;28;20054;-92
2022/07/20 02:25:27;;;;;;;8.25;4.53;;;22.30;79.80;;;;;;4994178;28;20129;-93
2022/07/20 02:27:53;;;;;;;7.97;4.88;;;22.20;80.00;;;;;;4979808;28;20039;-91
2022/07/20 02:30:19;;;;;;;8.27;4.60;;;22.20;80.00;;;;;;4977160;28;20056;-91
2022/07/20 02:32:44;;;;;;;8.68;4.72;;;22.20;80.00;;;;;;4977285;28;20069;-91
2022/07/20 02:35:10;;;;;;;7.50;4.03;;;22.10;80.00;;;;;;4983185;28;20454;-95
2022/07/20 02:37:36;;;;;;;8.05;4.60;;;22.10;80.00;;;;;;4985092;28;20043;-93
2022/07/20 02:40:02;;;;;;;7.55;4.32;;;22.00;79.80;;;;;;4974377;28;20046;-93
2022/07/20 02:42:28;;;;;;;8.63;4.50;;;22.10;79.90;;;;;;4993026;28;20042;-92
2022/07/20 02:44:53;;;;;;;7.20;4.38;;;22.00;80.10;;;;;;4988777;28;20423;-91
2022/07/20 02:47:19;;;;;;;8.90;4.70;;;21.90;80.90;;;;;;4970293;28;20049;-92
2022/07/20 02:49:44;;;;;;;10.05;4.68;;;21.90;80.20;;;;;;4974500;28;20454;-92
2022/07/20 02:52:10;;;;;;;8.55;4.88;;;21.90;80.30;;;;;;4974406;28;20035;-91
2022/07/20 02:54:35;;;;;;;7.43;4.22;;;21.90;80.20;;;;;;4973145;28;20054;-91
2022/07/20 02:57:01;;;;;;;10.25;5.70;;;21.90;80.50;;;;;;4980925;28;20047;-91
2022/07/20 02:59:27;;;;;;;9.07;5.00;;;21.90;81.10;;;;;;4974659;28;20039;-91
2022/07/20 03:01:52;;;;;;;7.22;4.60;;;21.80;80.80;;;;;;4969155;28;20054;-91
2022/07/20 03:04:18;;;;;;;8.35;4.85;;;21.90;81.10;;;;;;4957580;28;20090;-91
2022/07/20 03:06:44;;;;;;;10.70;5.15;;;21.90;80.80;;;;;;4956651;28;20129;-91
2022/07/20 03:09:09;;;;;;;8.18;4.47;;;21.90;81.30;;;;;;4983591;28;20108;-91
2022/07/20 03:11:35;;;;;;;9.20;4.50;;;21.80;81.30;;;;;;4966619;28;20479;-92
2022/07/20 03:14:01;;;;;;;9.73;4.85;;;21.80;81.30;;;;;;4981876;28;20031;-93
2022/07/20 03:16:26;;;;;;;9.27;5.00;;;21.80;81.40;;;;;;4977135;28;20451;-91
2022/07/20 03:18:52;;;;;;;7.78;4.68;;;21.80;81.60;;;;;;4978030;28;20065;-92
2022/07/20 03:21:18;;;;;;;8.30;4.45;;;21.70;81.60;;;;;;4981555;28;20046;-91
2022/07/20 03:23:43;;;;;;;9.18;4.70;;;21.80;81.40;;;;;;4991624;28;20496;-93
2022/07/20 03:26:09;;;;;;;7.15;4.70;;;21.80;81.30;;;;;;4968661;28;20309;-91
2022/07/20 03:28:35;;;;;;;9.45;4.85;;;21.70;81.50;;;;;;4978359;28;20092;-92
2022/07/20 03:31:00;;;;;;;10.13;5.07;;;21.70;81.40;;;;;;4982472;28;20417;-91
2022/07/20 03:33:26;;;;;;;9.13;4.68;;;21.70;81.70;;;;;;4972849;28;20410;-91
2022/07/20 03:35:52;;;;;;;7.57;4.53;;;21.80;82.20;;;;;;4989367;28;20495;-91
2022/07/20 03:38:17;;;;;;;9.13;4.55;;;21.70;82.20;;;;;;4990935;28;20133;-90
2022/07/20 03:40:43;;;;;;;8.52;5.25;;;21.70;82.10;;;;;;4990113;28;20092;-92
2022/07/20 03:43:08;;;;;;;8.70;4.80;;;21.60;82.40;;;;;;4965810;28;20047;-90
2022/07/20 03:45:34;;;;;;;7.35;4.25;;;21.60;82.30;;;;;;4973622;28;20053;-93
2022/07/20 03:48:00;;;;;;;7.65;4.40;;;21.60;82.20;;;;;;4968527;28;20047;-91
2022/07/20 03:50:25;;;;;;;8.60;4.55;;;21.60;82.40;;;;;;4972141;28;20078;-91
2022/07/20 03:52:52;;;;;;;10.05;5.00;;;21.60;82.00;;;;;;5001352;28;20060;-93
2022/07/20 03:55:18;;;;;;;8.27;4.80;;;21.70;81.90;;;;;;4990482;28;20120;-91
2022/07/20 03:57:43;;;;;;;8.95;4.88;;;21.60;82.40;;;;;;4988420;28;20038;-91
2022/07/20 04:00:10;;;;;;;7.80;4.82;;;21.50;82.60;;;;;;5006385;28;20183;-93
2022/07/20 04:02:36;;;;;;;8.50;4.97;;;21.60;82.60;;;;;;4989604;28;20117;-92
2022/07/20 04:05:02;;;;;;;9.93;4.97;;;21.60;82.30;;;;;;4989347;28;20140;-92
2022/07/20 04:07:28;;;;;;;8.60;5.05;;;21.50;82.10;;;;;;4987410;28;20501;-91
2022/07/20 04:09:54;;;;;;;7.70;4.72;;;21.70;82.50;;;;;;4971456;28;20137;-91
2022/07/20 04:12:23;;;;;;;8.43;4.95;;;21.70;82.80;;;;;;4955460;28;20122;-91
2022/07/20 04:14:51;;;;;;;8.13;4.80;;;21.70;83.10;;;;;;4971676;28;20492;-91
2022/07/20 04:17:17;;;;;;;9.35;4.00;;;21.70;83.10;;;;;;4989994;28;20124;-92
2022/07/20 04:19:43;;;;;;;8.27;5.05;;;21.80;83.00;;;;;;4972788;28;20042;-90
2022/07/20 04:22:09;;;;;;;9.63;4.95;;;21.80;83.80;;;;;;5000967;28;20100;-91
2022/07/20 04:24:35;;;;;;;9.68;4.70;;;21.80;84.80;;;;;;4955235;28;20749;-91
2022/07/20 04:27:01;;;;;;;7.20;4.50;;;21.70;84.50;;;;;;4976413;28;20043;-91
2022/07/20 04:29:28;;;;;;;8.50;4.57;;;21.80;84.40;;;;;;4980213;28;20078;-94
2022/07/20 04:31:53;;;;;;;7.93;4.40;;;21.80;84.90;;;;;;4987710;28;20058;-91
2022/07/20 04:34:19;;;;;;;8.32;4.80;;;21.70;84.60;;;;;;4993703;28;20046;-94
2022/07/20 04:36:45;;;;;;;8.75;4.90;;;21.90;84.80;;;;;;4996246;28;20041;-89
2022/07/20 04:39:11;;;;;;;8.88;5.13;;;21.90;86.70;;;;;;4987390;28;20069;-93
2022/07/20 04:41:37;;;;;;;7.53;4.85;;;21.90;87.10;;;;;;4991234;28;20050;-93
2022/07/20 04:44:02;;;;;;;9.32;5.47;;;21.90;86.80;;;;;;4975273;28;20045;-93
2022/07/20 04:46:28;;;;;;;9.25;5.07;;;21.90;87.00;;;;;;4984143;28;20042;-94
2022/07/20 04:48:54;;;;;;;9.43;5.40;;;21.90;87.00;;;;;;4990162;28;20038;-94
2022/07/20 04:51:20;;;;;;;10.73;5.18;;;21.90;87.20;;;;;;4972891;28;20053;-94
2022/07/20 04:53:46;;;;;;;8.68;5.07;;;21.90;87.20;;;;;;4986411;28;20047;-95
2022/07/20 04:56:12;;;;;;;10.02;5.50;;;21.80;87.30;;;;;;4982362;28;20043;-93
2022/07/20 04:58:38;;;;;;;9.80;5.55;;;22.00;87.20;;;;;;4977825;28;20061;-93
2022/07/20 05:01:03;;;;;;;9.10;5.10;;;22.00;87.90;;;;;;4961823;28;20051;-94
2022/07/20 05:03:29;;;;;;;8.10;5.28;;;22.10;88.40;;;;;;4987690;28;20125;-94
2022/07/20 05:05:55;;;;;;;9.35;5.15;;;22.10;87.50;;;;;;4988800;28;20046;-93
2022/07/20 05:08:20;;;;;;;11.65;5.15;;;22.10;86.10;;;;;;4992468;28;20054;-94
2022/07/20 05:10:46;;;;;;;10.25;5.20;;;22.20;87.10;;;;;;4989544;28;20389;-95
2022/07/20 05:13:12;;;;;;;8.50;5.05;;;22.30;86.00;;;;;;4977010;28;20115;-95
2022/07/20 05:15:37;;;;;;;9.70;5.25;;;22.30;86.20;;;;;;4969466;28;20085;-92
2022/07/20 05:18:03;;;;;;;8.20;5.10;;;22.30;85.30;;;;;;4971609;28;20129;-93
2022/07/20 05:20:29;;;;;;;8.60;5.13;;;22.40;85.10;;;;;;4974869;28;20178;-94
2022/07/20 05:22:54;;;;;;;11.40;5.60;;;22.40;84.30;;;;;;4977727;28;20047;-93
2022/07/20 05:25:20;;;;;;;10.55;5.32;;;22.50;85.00;;;;;;4979778;28;20045;-93
2022/07/20 05:27:46;;;;;;;10.05;5.25;;;22.60;84.30;;;;;;4981204;28;20442;-93
2022/07/20 05:30:11;;;;;;;12.43;5.32;;;22.70;84.00;;;;;;4971873;28;20045;-93
2022/07/20 05:32:37;;;;;;;8.65;5.25;;;22.70;83.10;;;;;;4981180;28;20046;-93
2022/07/20 05:35:04;;;;;;;8.88;5.50;;;22.80;82.60;;;;;;4987868;28;20424;-92
2022/07/20 05:37:30;;;;;;;9.88;5.50;;;22.90;82.20;;;;;;4972511;28;20042;-93
2022/07/20 05:39:55;;;;;;;10.10;5.57;;;23.00;82.80;;;;;;4979275;28;20042;-92
2022/07/20 05:42:21;;;;;;;8.82;5.43;;;23.10;82.20;;;;;;4959712;28;20047;-92
2022/07/20 05:44:46;;;;;;;9.95;6.00;;;23.10;81.80;;;;;;4985662;28;20049;-93
2022/07/20 05:47:12;;;;;;;9.27;5.90;;;23.30;81.40;;;;;;4976894;28;20057;-92
2022/07/20 05:49:38;;;;;;;11.23;5.85;;;23.40;81.30;;;;;;4965865;28;20090;-91
2022/07/20 05:52:04;;;;;;;10.60;6.55;;;23.40;81.30;;;;;;4962316;28;20400;-91
2022/07/20 05:54:29;;;;;;;9.88;6.10;;;23.60;81.10;;;;;;4988780;28;20053;-91
2022/07/20 05:56:55;;;;;;;10.27;6.05;;;23.60;81.00;;;;;;4990332;28;20034;-91
2022/07/20 05:59:21;;;;;;;10.95;6.10;;;23.70;80.80;;;;;;4990981;28;20539;-91
2022/07/20 06:01:46;;;;;;;10.55;5.60;;;23.80;80.60;;;;;;4979262;28;20422;-91
2022/07/20 06:04:12;;;;;;;8.43;5.75;;;23.90;80.40;;;;;;4987158;28;20456;-90
2022/07/20 06:06:38;;;;;;;11.02;5.90;;;24.00;80.30;;;;;;4990333;28;20050;-92
2022/07/20 06:09:05;;;;;;;10.23;5.60;;;24.00;80.00;;;;;;4992273;28;20619;-91
2022/07/20 06:11:31;;;;;;;9.23;5.80;;;24.10;80.00;;;;;;4987923;28;20092;-90
2022/07/20 06:13:56;;;;;;;9.43;5.53;;;24.20;80.40;;;;;;4978138;28;20035;-91
2022/07/20 06:16:22;;;;;;;12.80;6.15;;;24.20;81.00;;;;;;4990407;28;20035;-91
2022/07/20 06:18:47;;;;;;;11.35;6.00;;;24.30;81.30;;;;;;4989115;28;20042;-91
2022/07/20 06:21:14;;;;;;;9.75;5.82;;;24.40;81.90;;;;;;4983023;28;20061;-90
2022/07/20 06:23:40;;;;;;;8.32;6.28;;;24.50;81.70;;;;;;4974413;28;20121;-90
2022/07/20 06:26:06;;;;;;;10.60;6.50;;;24.60;81.60;;;;;;4984019;28;20046;-89
2022/07/20 06:28:32;;;;;;;10.05;5.97;;;24.70;81.00;;;;;;4980709;28;20084;-89
2022/07/20 06:30:57;;;;;;;11.40;5.95;;;24.80;80.60;;;;;;4980665;28;20049;-88
2022/07/20 06:33:23;;;;;;;9.60;6.80;;;24.90;80.20;;;;;;4989470;28;20058;-89
2022/07/20 06:35:48;;;;;;;9.82;5.80;;;24.90;80.00;;;;;;4975799;28;20056;-88
2022/07/20 06:38:14;;;;;;;11.48;6.70;;;25.10;79.80;;;;;;4955963;28;20057;-88
2022/07/20 06:40:40;;;;;;;12.70;6.28;;;25.20;79.10;;;;;;4972768;28;20130;-89
2022/07/20 06:43:05;;;;;;;10.40;5.60;;;25.20;78.80;;;;;;4973467;28;20049;-89
2022/07/20 06:45:31;;;;;;;9.20;6.00;;;25.30;78.30;;;;;;4982032;28;20042;-88
2022/07/20 06:47:56;;;;;;;9.55;5.93;;;25.40;78.60;;;;;;4991590;28;20770;-89
2022/07/20 06:50:22;;;;;;;9.27;5.70;;;25.40;77.60;;;;;;4991740;28;20042;-92
2022/07/20 06:52:48;;;;;;;12.82;6.72;;;25.50;77.40;;;;;;4989178;28;20074;-91
2022/07/20 06:55:13;;;;;;;10.90;6.63;;;25.60;77.80;;;;;;4966928;28;20125;-90
2022/07/20 06:57:39;;;;;;;10.70;6.85;;;25.70;78.10;;;;;;4982199;28;20043;-91
2022/07/20 07:00:07;;;;;;;10.18;7.00;;;25.70;78.10;;;;;;4987690;28;20050;-92
2022/07/20 07:02:32;;;;;;;10.75;6.78;;;25.80;78.40;;;;;;5000258;28;20082;-91
2022/07/20 07:04:58;;;;;;;12.18;7.60;;;25.80;77.70;;;;;;4988114;28;20143;-92
2022/07/20 07:07:23;;;;;;;10.30;6.13;;;26.00;77.60;;;;;;4974677;28;20111;-92
2022/07/20 07:09:49;;;;;;;9.35;6.35;;;26.00;77.40;;;;;;4986871;28;20479;-89
2022/07/20 07:12:14;;;;;;;11.70;6.47;;;26.00;77.40;;;;;;4988996;28;20050;-89
2022/07/20 07:14:40;;;;;;;11.13;7.82;;;26.00;77.20;;;;;;4968684;28;20534;-91
2022/07/20 07:17:06;;;;;;;11.55;6.45;;;26.00;77.20;;;;;;4987707;28;20558;-90
2022/07/20 07:19:31;;;;;;;10.38;6.85;;;26.10;77.00;;;;;;4971131;28;20066;-90
2022/07/20 07:21:57;;;;;;;12.20;7.47;;;26.20;76.70;;;;;;4973226;28;20054;-91
2022/07/20 07:24:23;;;;;;;11.75;7.13;;;26.20;76.90;;;;;;4961536;28;20129;-91
2022/07/20 07:26:48;;;;;;;9.52;6.38;;;26.30;77.40;;;;;;4981643;28;20042;-90
2022/07/20 07:29:14;;;;;;;10.57;6.80;;;26.30;77.90;;;;;;4984825;28;20534;-89
2022/07/20 07:31:40;;;;;;;12.15;8.68;;;26.40;78.70;;;;;;4978447;28;20134;-90
2022/07/20 07:34:06;;;;;;;12.05;7.22;;;26.40;78.30;;;;;;4983365;28;20082;-90
2022/07/20 07:36:31;;;;;;;12.50;8.27;;;26.50;78.90;;;;;;4987837;28;20046;-92
2022/07/20 07:38:57;;;;;;;11.98;8.40;;;26.60;79.60;;;;;;4991876;28;20122;-93
2022/07/20 07:41:23;;;;;;;12.25;8.27;;;26.60;80.00;;;;;;4991296;28;20379;-94
2022/07/20 07:43:49;;;;;;;12.05;8.90;;;26.60;79.90;;;;;;4992353;28;20042;-93
2022/07/20 07:46:15;;;;;;;12.43;8.23;;;26.60;80.50;;;;;;4991218;28;20042;-93
2022/07/20 07:48:40;;;;;;;14.38;9.48;;;26.70;81.00;;;;;;4992324;28;20057;-90
2022/07/20 07:51:06;;;;;;;13.57;9.88;;;26.80;82.10;;;;;;4991470;28;20542;-93
2022/07/20 07:53:32;;;;;;;15.85;11.10;;;26.80;82.60;;;;;;4973373;28;20037;-91
2022/07/20 07:55:57;;;;;;;15.85;12.10;;;26.80;82.80;;;;;;4988849;28;20062;-91
2022/07/20 07:58:23;;;;;;;15.25;11.50;;;26.80;83.20;;;;;;4989382;28;20088;-91
2022/07/20 08:00:49;;;;;;;16.55;11.73;;;26.80;83.80;;;;;;4990258;28;20053;-92
2022/07/20 08:03:15;;;;;;;16.30;13.00;;;26.70;84.30;;;;;;4987469;28;20062;-90
2022/07/20 08:05:40;;;;;;;16.13;13.55;;;26.80;85.00;;;;;;4972805;28;20085;-90
2022/07/20 08:08:11;;;;;;;18.60;15.52;;;26.90;85.60;;;;;;4972486;28;20082;-94
2022/07/20 08:10:37;;;;;;;;;;;26.90;86.20;;;;;;4955481;28;20043;-91
2022/07/20 08:13:04;;;;;;;17.65;15.18;;;26.90;88.10;;;;;;4960949;28;19930;-91
2022/07/20 08:15:30;;;;;;;20.23;16.58;;;27.00;88.10;;;;;;4976683;28;20078;-90
2022/07/20 08:17:55;;;;;;;18.73;16.67;;;27.00;88.60;;;;;;4987182;28;20049;-89
2022/07/20 08:20:22;;;;;;;21.20;17.88;;;27.00;89.30;;;;;;4973425;28;20403;-91
2022/07/20 08:22:48;;;;;;;21.88;18.48;;;27.10;89.90;;;;;;4988172;28;20395;-87
2022/07/20 08:25:14;;;;;;;20.48;18.38;;;27.20;90.20;;;;;;4989798;28;20095;-90
2022/07/20 08:27:40;;;;;;;24.60;18.70;;;27.10;90.40;;;;;;4987533;28;20085;-89
2022/07/20 08:30:06;;;;;;;24.02;20.55;;;27.10;90.90;;;;;;4987012;28;20081;-91
2022/07/20 08:32:32;;;;;;;21.88;19.50;;;27.10;91.10;;;;;;4991149;28;20518;-92
2022/07/20 08:34:57;;;;;;;25.05;21.20;;;27.00;91.30;;;;;;4989553;28;20110;-89
2022/07/20 08:37:23;;;;;;;23.35;19.73;;;27.10;91.60;;;;;;4991098;28;20376;-91
2022/07/20 08:39:49;;;;;;;22.52;19.98;;;27.20;91.90;;;;;;4957642;28;20097;-89
2022/07/20 08:42:15;;;;;;;23.40;20.60;;;27.30;92.30;;;;;;4980105;28;20447;-94
2022/07/20 08:44:42;;;;;;;23.85;21.35;;;27.30;92.30;;;;;;4989351;28;20121;-92
2022/07/20 08:47:11;;;;;;;25.83;21.27;;;27.50;92.50;;;;;;4988496;28;20053;-91
2022/07/20 08:49:38;;;;;;;30.08;22.67;;;27.40;92.60;;;;;;4989855;28;20054;-91
2022/07/20 08:52:04;;;;;;;26.20;22.25;;;27.50;92.60;;;;;;4972210;28;20089;-91
2022/07/20 08:54:32;;;;;;;25.70;22.73;;;27.40;92.70;;;;;;4990175;28;20042;-91
2022/07/20 08:56:57;;;;;;;25.23;22.58;;;27.50;92.80;;;;;;4987684;28;20089;-91
2022/07/20 08:59:23;;;;;;;25.33;22.63;;;27.50;93.20;;;;;;4988722;28;20082;-93
2022/07/20 09:02:00;;;;;;;25.40;22.77;;;27.50;93.40;;;;;;4988661;28;20109;-90
2022/07/20 09:04:26;;;;;;;25.52;22.38;;;27.70;93.50;;;;;;4988649;28;20096;-91
2022/07/20 09:06:52;;;;;;;27.00;24.20;;;27.70;93.50;;;;;;4989228;28;20043;-90
2022/07/20 09:09:19;;;;;;;27.52;24.02;;;27.80;93.40;;;;;;4990118;28;20042;-91
2022/07/20 09:11:45;;;;;;;29.00;25.23;;;27.70;93.00;;;;;;4987309;28;20106;-89
2022/07/20 09:14:11;;;;;;;27.88;24.40;;;27.80;92.30;;;;;;4988864;28;20038;-91
2022/07/20 09:16:46;;;;;;;28.20;25.13;;;27.70;92.20;;;;;;4988349;28;20494;-90
2022/07/20 09:19:13;;;;;;;30.38;26.02;;;27.80;92.00;;;;;;4989455;28;20089;-89
2022/07/20 09:21:39;;;;;;;29.80;26.88;;;27.70;91.80;;;;;;4972263;28;20525;-91
2022/07/20 09:24:07;;;;;;;31.10;27.77;;;27.60;91.80;;;;;;4971745;28;20054;-90
2022/07/20 09:26:33;;;;;;;29.88;26.98;;;27.70;92.00;;;;;;4987421;28;20077;-89
2022/07/20 09:29:03;;;;;;;31.95;28.48;;;27.70;91.90;;;;;;4978396;28;20043;-89
2022/07/20 09:31:37;;;;;;;29.55;26.75;;;27.70;91.80;;;;;;4971328;28;20089;-90
2022/07/20 09:34:05;;;;;;;31.25;27.83;;;27.60;91.80;;;;;;4979826;28;20057;-88
2022/07/20 09:36:35;;;;;;;29.42;26.23;;;27.60;91.60;;;;;;4989526;28;20423;-90
2022/07/20 09:39:15;;;;;;;30.10;26.95;;;27.70;91.40;;;;;;4987854;28;20081;-87
2022/07/20 09:41:50;;;;;;;30.20;26.98;;;27.60;91.50;;;;;;4988034;28;20050;-89
2022/07/20 09:44:27;;;;;;;29.13;26.02;;;27.60;91.40;;;;;;4985561;28;20134;-92
2022/07/20 09:46:53;;;;;;;28.95;25.98;;;27.60;91.40;;;;;;4969708;28;20419;-91
2022/07/20 09:49:21;;;;;;;28.13;25.13;;;27.70;91.30;;;;;;4988240;28;20045;-88
2022/07/20 09:51:56;;;;;;;27.52;24.50;;;27.60;90.90;;;;;;4984453;28;20129;-88
2022/07/20 09:54:21;;;;;;;29.60;25.42;;;27.70;91.00;;;;;;4989921;28;20078;-93
2022/07/20 09:56:49;;;;;;;26.98;23.40;;;27.70;90.70;;;;;;4968449;28;20466;-90
2022/07/20 09:59:16;;;;;;;26.00;23.40;;;27.70;90.60;;;;;;4988920;28;20069;-90
2022/07/20 10:01:51;;;;;;;25.75;23.13;;;27.80;89.60;;;;;;4988955;28;20391;-86
2022/07/20 10:04:18;;;;;;;24.90;21.17;;;27.80;87.50;;;;;;4957017;28;20051;-90
2022/07/20 10:06:47;;;;;;;24.35;21.85;;;27.70;85.50;;;;;;4954622;28;20145;-92
2022/07/20 10:09:14;;;;;;;22.58;20.38;;;27.70;85.00;;;;;;4986853;28;20042;-96
2022/07/20 10:11:41;;;;;;;23.98;20.90;;;27.80;85.00;;;;;;4989366;28;20050;-86
2022/07/20 10:14:07;;;;;;;22.70;19.67;;;27.70;84.80;;;;;;4973321;28;20411;-90
2022/07/20 10:16:44;;;;;;;22.30;20.00;;;27.70;84.70;;;;;;4970823;28;20051;-91
2022/07/20 10:19:10;;;;;;;22.15;19.85;;;27.80;83.90;;;;;;4989895;28;20396;-91
2022/07/20 10:21:40;;;;;;;22.35;19.92;;;27.80;84.10;;;;;;4989751;28;20058;-87
2022/07/20 10:24:30;;;;;;;21.23;18.93;;;27.80;83.50;;;;;;4987564;28;20047;-93
2022/07/20 10:27:16;;;;;;;20.05;17.90;;;27.80;82.30;;;;;;4990098;28;20047;-93
2022/07/20 10:29:48;;;;;;;19.77;17.67;;;27.90;81.70;;;;;;4991819;28;20049;-91
2022/07/20 10:32:20;;;;;;;18.83;16.95;;;27.90;81.70;;;;;;4992877;28;20038;-95
2022/07/20 10:34:52;;;;;;;19.15;17.20;;;27.90;81.10;;;;;;4991188;28;20038;-86
2022/07/20 10:37:43;;;;;;;20.15;17.63;;;28.00;80.60;;;;;;5008981;28;20038;-94
2022/07/20 10:40:14;;;;;;;18.88;16.40;;;28.00;80.50;;;;;;4994241;28;20407;-93
2022/07/20 10:43:06;;;;;;;19.85;16.83;;;28.00;80.10;;;;;;4993521;28;20043;-93
2022/07/20 10:45:34;;;;;;;18.00;15.27;;;28.00;78.30;;;;;;4976706;28;20129;-85
2022/07/20 10:48:17;;;;;;;17.33;15.23;;;28.00;78.70;;;;;;4991252;28;20066;-90
2022/07/20 10:50:49;;;;;;;17.50;15.13;;;28.00;78.70;;;;;;4992417;28;20046;-92
2022/07/20 10:53:14;;;;;;;20.80;15.18;;;28.10;79.40;;;;;;4990955;28;20455;-91
2022/07/20 10:55:50;;;;;;;15.45;13.80;;;28.10;79.90;;;;;;4991446;28;20100;-92
2022/07/20 10:58:20;;;;;;;17.83;14.38;;;28.10;79.20;;;;;;4991142;28;20126;-91
2022/07/20 11:00:55;;;;;;;14.93;13.32;;;28.10;79.40;;;;;;4991532;28;20741;-93
2022/07/20 11:03:29;;;;;;;20.05;14.80;;;28.10;80.00;;;;;;4988295;28;20066;-92
2022/07/20 11:06:27;;;;;;;17.35;13.70;;;28.10;80.30;;;;;;4991824;28;20043;-91
2022/07/20 11:08:54;;;;;;;16.67;13.30;;;28.20;81.80;;;;;;4937315;28;20582;-92
2022/07/20 11:11:32;;;;;;;15.93;12.93;;;28.20;80.90;;;;;;4972826;28;20117;-89
2022/07/20 11:13:58;;;;;;;14.95;13.02;;;28.30;80.60;;;;;;4984462;28;20050;-91
2022/07/20 11:16:26;;;;;;;14.88;12.02;;;28.20;80.20;;;;;;4972836;28;20074;-89
2022/07/20 11:18:53;;;;;;;17.40;11.48;;;28.20;79.80;;;;;;4982362;28;20053;-90
2022/07/20 11:21:31;;;;;;;14.85;11.40;;;28.20;79.60;;;;;;4991407;28;20042;-92
2022/07/20 11:23:57;;;;;;;17.90;11.77;;;28.20;79.90;;;;;;4991435;28;20053;-94
2022/07/20 11:26:23;;;;;;;14.38;11.68;;;28.20;79.10;;;;;;4991250;28;20047;-94
2022/07/20 11:28:51;;;;;;;16.63;12.30;;;28.20;80.00;;;;;;4989709;28;20391;-92
2022/07/20 11:31:19;;;;;;;15.82;11.20;;;28.30;80.10;;;;;;4993310;28;20042;-93
2022/07/20 11:33:47;;;;;;;14.02;11.52;;;28.30;80.00;;;;;;4991562;28;20131;-92
2022/07/20 11:36:18;;;;;;;16.10;11.80;;;28.30;80.00;;;;;;4991918;28;20046;-91
2022/07/20 11:38:46;;;;;;;15.82;11.77;;;28.40;80.50;;;;;;4989037;28;20053;-89
2022/07/20 11:41:20;;;;;;;17.17;11.25;;;28.40;79.70;;;;;;4990931;28;20084;-89
2022/07/20 11:43:46;;;;;;;14.43;11.52;;;28.40;79.40;;;;;;4989687;28;20077;-91
2022/07/20 11:46:13;;;;;;;15.73;12.07;;;28.50;79.10;;;;;;4989145;28;20042;-90
2022/07/20 11:48:40;;;;;;;14.35;11.13;;;28.50;78.30;;;;;;4990283;28;20043;-91
2022/07/20 11:51:07;;;;;;;16.45;11.85;;;28.50;78.20;;;;;;4989822;28;20085;-91
2022/07/20 11:53:38;;;;;;;14.43;10.48;;;28.50;79.50;;;;;;4990357;28;20503;-92
2022/07/20 11:56:10;;;;;;;13.82;10.73;;;28.60;78.70;;;;;;4971191;28;20038;-90
2022/07/20 11:58:37;;;;;;;15.90;10.30;;;28.60;78.60;;;;;;4991754;28;20069;-91
2022/07/20 12:01:06;;;;;;;13.32;10.80;;;28.60;77.20;;;;;;4988399;28;20058;-96
2022/07/20 12:03:37;;;;;;;14.13;9.98;;;28.50;76.80;;;;;;4961119;28;20049;-91
2022/07/20 12:06:09;;;;;;;14.60;10.32;;;28.50;76.30;;;;;;4970397;28;20116;-93
2022/07/20 12:08:35;;;;;;;13.50;10.32;;;28.50;76.20;;;;;;4978704;28;20407;-90
2022/07/20 12:11:01;;;;;;;12.13;9.73;;;28.60;77.30;;;;;;4989253;28;20054;-92
2022/07/20 12:13:27;;;;;;;13.05;9.50;;;28.50;77.10;;;;;;4989866;28;20416;-90
2022/07/20 12:16:04;;;;;;;12.43;8.77;;;28.60;76.20;;;;;;4972703;28;20061;-92
2022/07/20 12:18:40;;;;;;;11.32;8.85;;;28.60;75.30;;;;;;4973818;28;20399;-90
2022/07/20 12:21:09;;;;;;;11.02;8.80;;;28.60;74.10;;;;;;4991629;28;20094;-95
2022/07/20 12:23:35;;;;;;;13.25;8.95;;;28.60;74.20;;;;;;4989542;28;20042;-96
2022/07/20 12:26:01;;;;;;;12.73;8.90;;;28.50;74.40;;;;;;4989597;28;20104;-88
2022/07/20 12:28:32;;;;;;;12.27;8.77;;;28.60;75.20;;;;;;4961245;28;20503;-93
2022/07/20 12:31:16;;;;;;;11.75;8.55;;;28.60;75.60;;;;;;4953895;28;20563;-91
2022/07/20 12:34:04;;;;;;;11.15;8.60;;;28.70;74.90;;;;;;4983478;28;20046;-93
2022/07/20 12:36:36;;;;;;;12.02;7.97;;;28.70;74.50;;;;;;4990032;28;20046;-88
2022/07/20 12:39:06;;;;;;;12.27;8.30;;;28.60;73.50;;;;;;4992208;28;20054;-89
2022/07/20 12:41:32;;;;;;;11.77;7.95;;;28.60;73.50;;;;;;4985252;28;20042;-95
2022/07/20 12:43:57;;;;;;;10.82;7.72;;;28.60;73.20;;;;;;4989135;28;20047;-91